Time;durP1;ratioP1;P1;durP2;ratioP2;P2;SDS_P1;SDS_P2;PMS_P1;PMS_P2;Temp;Humidity;BMP_temperature;BMP_pressure;BME280_temperature;BME280_humidity;BME280_pressure;Samples;Min_cycle;Max_cycle;Signal;HPM_P1;HPM_P2
2022/07/23 00:01:34;;;;;;;7.47;4.00;;;;;;;26.06;39.71;99740.59;5070846;28;20380;-41
2022/07/23 00:03:59;;;;;;;7.75;4.60;;;;;;;26.13;40.14;99743.72;5070611;28;20030;-43
2022/07/23 00:06:25;;;;;;;7.75;4.40;;;;;;;25.91;40.92;99733.50;5070786;28;20519;-41
2022/07/23 00:08:50;;;;;;;8.98;4.35;;;;;;;26.04;40.11;99743.63;5070048;28;20093;-42
2022/07/23 00:11:16;;;;;;;7.47;4.10;;;;;;;26.13;39.99;99741.78;5070668;28;20109;-43
2022/07/23 00:13:42;;;;;;;6.25;4.25;;;;;;;26.16;40.17;99748.56;5070616;28;20028;-41
2022/07/23 00:16:08;;;;;;;11.30;4.20;;;;;;;26.04;40.38;99742.81;5070662;28;20023;-42
2022/07/23 00:18:33;;;;;;;7.47;4.38;;;;;;;25.96;41.26;99740.81;5069181;28;20065;-42
2022/07/23 00:20:59;;;;;;;8.27;4.30;;;;;;;25.69;41.70;99743.25;5070614;28;20396;-42
2022/07/23 00:23:24;;;;;;;8.38;4.30;;;;;;;25.71;41.78;99745.66;5070507;28;20472;-43
2022/07/23 00:25:51;;;;;;;8.82;4.20;;;;;;;25.71;41.75;99743.75;5070360;28;20024;-42
2022/07/23 00:28:18;;;;;;;10.15;4.30;;;;;;;25.89;41.15;99747.47;5081431;28;20409;-42
2022/07/23 00:30:43;;;;;;;6.13;4.30;;;;;;;25.92;41.24;99735.19;5090382;28;20372;-43
2022/07/23 00:33:09;;;;;;;8.48;4.18;;;;;;;25.86;41.40;99737.16;5090248;28;20024;-42
2022/07/23 00:35:37;;;;;;;5.38;3.83;;;;;;;25.65;41.96;99741.44;5090440;28;20051;-42
2022/07/23 00:38:04;;;;;;;7.50;4.15;;;;;;;25.61;41.71;99743.97;5090753;28;20024;-43
2022/07/23 00:40:30;;;;;;;6.78;4.15;;;;;;;25.61;41.92;99745.88;5090051;28;20485;-41
2022/07/23 00:42:56;;;;;;;10.95;4.15;;;;;;;25.63;42.13;99747.19;5090490;28;20039;-42
2022/07/23 00:45:22;;;;;;;6.47;4.07;;;;;;;25.55;42.04;99747.88;5090456;28;20034;-42
2022/07/23 00:47:48;;;;;;;8.40;4.53;;;;;;;25.61;41.92;99738.53;5090573;28;20138;-41
2022/07/23 00:50:14;;;;;;;9.77;4.90;;;;;;;25.60;42.13;99736.88;5089974;28;20028;-42
2022/07/23 00:52:41;;;;;;;10.35;4.57;;;;;;;25.82;41.66;99757.97;5090282;28;20020;-42
2022/07/23 00:55:08;;;;;;;9.63;4.80;;;;;;;25.65;42.42;99755.06;5090614;28;20039;-42
2022/07/23 00:57:33;;;;;;;9.57;6.25;;;;;;;25.59;42.94;99758.97;5090210;28;20484;-43
2022/07/23 00:59:59;;;;;;;13.98;7.78;;;;;;;25.45;43.36;99757.06;5090096;28;20023;-44
2022/07/23 01:02:26;;;;;;;19.08;9.65;;;;;;;25.47;43.66;99760.28;5089748;28;20081;-42
2022/07/23 01:04:51;;;;;;;14.30;9.05;;;;;;;25.34;43.99;99761.09;5090239;28;20020;-42
2022/07/23 01:07:18;;;;;;;13.98;9.25;;;;;;;25.40;44.22;99759.91;5090298;28;20099;-43
2022/07/23 01:09:44;;;;;;;12.40;8.63;;;;;;;25.43;44.11;99759.28;5091536;28;20031;-43
2022/07/23 01:12:10;;;;;;;12.88;7.78;;;;;;;25.46;43.93;99755.97;5093620;28;20024;-42
2022/07/23 01:14:35;;;;;;;11.52;7.95;;;;;;;25.37;44.07;99755.06;5093763;28;20310;-43
2022/07/23 01:17:01;;;;;;;11.90;7.18;;;;;;;25.38;44.11;99748.50;5093590;28;20028;-43
2022/07/23 01:19:27;;;;;;;12.38;7.32;;;;;;;25.38;44.34;99753.13;5093426;28;20123;-43
2022/07/23 01:21:55;;;;;;;9.10;6.68;;;;;;;25.34;44.35;99747.47;5093791;28;20028;-45
2022/07/23 01:24:20;;;;;;;11.43;7.22;;;;;;;25.33;44.39;99749.41;5093225;28;20032;-42
2022/07/23 01:26:47;;;;;;;12.98;6.90;;;;;;;25.30;44.52;99746.47;5093836;28;20031;-43
2022/07/23 01:29:14;;;;;;;12.50;7.28;;;;;;;25.37;44.86;99746.88;5091896;28;20453;-42
2022/07/23 01:31:39;;;;;;;14.45;7.25;;;;;;;25.31;44.52;99748.91;5093520;28;20062;-44
2022/07/23 01:34:06;;;;;;;11.23;6.80;;;;;;;25.36;44.41;99750.75;5092582;28;20024;-42
2022/07/23 01:36:36;;;;;;;14.38;6.70;;;;;;;25.32;45.01;99758.69;5093479;28;20032;-42
2022/07/23 01:39:03;;;;;;;12.32;7.18;;;;;;;25.32;44.98;99755.97;5093395;28;20046;-42
2022/07/23 01:41:29;;;;;;;9.13;6.45;;;;;;;25.34;44.90;99763.81;5093336;28;20016;-43
2022/07/23 01:43:54;;;;;;;12.38;6.80;;;;;;;25.30;44.78;99750.03;5092422;28;20027;-43
2022/07/23 01:46:20;;;;;;;17.48;10.88;;;;;;;25.24;44.65;99750.41;5092680;28;20031;-43
2022/07/23 01:48:45;;;;;;;13.75;7.95;;;;;;;25.07;45.06;99753.69;5093334;28;20043;-43
2022/07/23 01:51:11;;;;;;;9.80;6.72;;;;;;;25.29;44.34;99734.78;5093141;28;20048;-43
2022/07/23 01:53:36;;;;;;;15.93;9.82;;;;;;;25.27;44.53;99747.91;5092965;28;20468;-42
2022/07/23 01:56:03;;;;;;;29.23;16.75;;;;;;;25.20;44.83;99761.06;5092679;28;20024;-41
2022/07/23 01:58:28;;;;;;;13.43;8.73;;;;;;;25.16;44.52;99758.13;5092827;28;20380;-42
2022/07/23 02:00:55;;;;;;;12.20;8.13;;;;;;;25.15;44.18;99755.69;5093138;28;20484;-42
2022/07/23 02:03:21;;;;;;;13.88;8.60;;;;;;;25.27;44.11;99747.09;5092745;28;20077;-41
2022/07/23 02:05:46;;;;;;;12.60;8.73;;;;;;;25.15;43.95;99752.97;5092539;28;20020;-42
2022/07/23 02:08:12;;;;;;;14.88;9.18;;;;;;;25.07;44.26;99749.03;5092847;28;20030;-41
2022/07/23 02:10:37;;;;;;;14.13;8.70;;;;;;;25.20;43.83;99754.81;5092689;28;20087;-42
2022/07/23 02:13:03;;;;;;;16.63;9.43;;;;;;;25.09;44.35;99756.91;5092636;28;20047;-41
2022/07/23 02:15:28;;;;;;;11.90;8.30;;;;;;;24.99;45.26;99752.44;5092535;28;20023;-41
2022/07/23 02:17:55;;;;;;;12.85;8.85;;;;;;;24.97;45.06;99760.91;5092290;28;20020;-41
2022/07/23 02:20:20;;;;;;;13.02;10.02;;;;;;;25.10;44.19;99758.53;5073456;28;20028;-41
2022/07/23 02:22:46;;;;;;;16.85;10.43;;;;;;;25.06;44.18;99754.81;5071618;28;20035;-41
2022/07/23 02:25:11;;;;;;;15.70;10.75;;;;;;;25.03;43.84;99758.09;5072157;28;20024;-42
2022/07/23 02:27:37;;;;;;;16.58;10.68;;;;;;;25.11;43.86;99755.53;5076990;28;20407;-41
2022/07/23 02:30:03;;;;;;;16.38;10.98;;;;;;;24.96;43.87;99759.31;5092019;28;20027;-42
2022/07/23 02:32:29;;;;;;;17.40;10.50;;;;;;;24.98;44.05;99759.81;5091739;28;20024;-42
2022/07/23 02:34:54;;;;;;;13.93;10.38;;;;;;;25.00;44.15;99759.53;5092471;28;20023;-42
2022/07/23 02:37:19;;;;;;;17.13;10.85;;;;;;;24.94;44.37;99750.63;5091505;28;20058;-42
2022/07/23 02:39:45;;;;;;;14.63;11.00;;;;;;;24.88;44.46;99756.47;5091925;28;20036;-42
2022/07/23 02:42:10;;;;;;;16.23;10.38;;;;;;;24.82;44.93;99752.22;5091828;28;20032;-42
2022/07/23 02:44:36;;;;;;;15.60;10.57;;;;;;;24.82;45.17;99763.09;5090568;28;20016;-42
2022/07/23 02:47:02;;;;;;;15.50;10.15;;;;;;;24.78;45.06;99762.88;5091618;28;20073;-42
2022/07/23 02:49:27;;;;;;;14.25;9.25;;;;;;;24.84;44.92;99763.59;5091955;28;20057;-42
2022/07/23 02:51:53;;;;;;;15.05;9.98;;;;;;;24.84;44.83;99758.97;5091841;28;20131;-41
2022/07/23 02:54:18;;;;;;;16.60;9.73;;;;;;;24.74;44.91;99762.66;5091529;28;20081;-42
2022/07/23 02:56:44;;;;;;;13.52;9.43;;;;;;;24.84;44.77;99766.31;5091488;28;20074;-43
2022/07/23 02:59:10;;;;;;;12.80;8.77;;;;;;;24.80;45.03;99768.03;5091522;28;20024;-43
2022/07/23 03:01:36;;;;;;;11.32;8.48;;;;;;;24.71;45.01;99768.72;5091425;28;20404;-42
2022/07/23 03:04:01;;;;;;;14.55;8.80;;;;;;;24.86;44.77;99767.63;5091366;28;20102;-43
2022/07/23 03:06:27;;;;;;;14.32;8.50;;;;;;;24.75;45.14;99771.63;5091535;28;20428;-43
2022/07/23 03:08:52;;;;;;;14.77;8.65;;;;;;;24.74;44.85;99772.75;5091423;28;20035;-42
2022/07/23 03:11:18;;;;;;;15.45;8.65;;;;;;;24.90;44.59;99778.72;5091634;28;20127;-43
2022/07/23 03:13:43;;;;;;;12.93;8.18;;;;;;;24.80;44.71;99766.09;5091329;28;20047;-42
2022/07/23 03:16:09;;;;;;;10.90;7.50;;;;;;;24.70;45.35;99772.53;5091614;28;20020;-44
2022/07/23 03:18:34;;;;;;;13.27;8.50;;;;;;;24.65;45.28;99769.09;5091109;28;20016;-42
2022/07/23 03:21:00;;;;;;;12.05;8.07;;;;;;;24.75;44.49;99775.19;5090999;28;20027;-42
2022/07/23 03:23:25;;;;;;;9.82;7.40;;;;;;;24.78;44.59;99784.66;5091211;28;20092;-42
2022/07/23 03:25:51;;;;;;;12.48;7.57;;;;;;;24.77;44.79;99772.16;5091446;28;20098;-42
2022/07/23 03:28:18;;;;;;;10.90;7.53;;;;;;;24.87;44.59;99780.16;5091391;28;20024;-42
2022/07/23 03:30:48;;;;;;;13.77;7.82;;;;;;;24.84;44.85;99777.22;5090844;28;20024;-41
2022/07/23 03:33:16;;;;;;;12.35;7.47;;;;;;;24.66;45.18;99776.94;5090300;28;20019;-42
2022/07/23 03:35:42;;;;;;;11.73;7.15;;;;;;;24.64;45.51;99779.16;5091264;28;20035;-40
2022/07/23 03:38:07;;;;;;;12.68;8.00;;;;;;;24.85;44.90;99785.09;5091007;28;20027;-41
2022/07/23 03:40:33;;;;;;;10.98;6.97;;;;;;;24.97;44.97;99784.59;5091060;28;20538;-41
2022/07/23 03:42:58;;;;;;;9.50;6.75;;;;;;;24.89;45.03;99783.38;5090663;28;20107;-41
2022/07/23 03:45:23;;;;;;;10.18;6.97;;;;;;;24.76;45.08;99781.41;5091004;28;20032;-41
2022/07/23 03:47:49;;;;;;;10.73;6.90;;;;;;;24.75;45.05;99774.34;5091011;28;20012;-42
2022/07/23 03:50:14;;;;;;;14.95;6.93;;;;;;;25.03;44.49;99779.88;5090754;28;20032;-42
2022/07/23 03:52:40;;;;;;;11.20;6.85;;;;;;;25.14;44.28;99784.84;5090768;28;20035;-42
2022/07/23 03:55:06;;;;;;;13.55;6.57;;;;;;;25.38;43.88;99785.81;5091201;28;20095;-42
2022/07/23 03:57:32;;;;;;;11.35;7.00;;;;;;;25.48;43.61;99782.91;5090835;28;20105;-42
2022/07/23 03:59:57;;;;;;;12.07;6.38;;;;;;;25.14;43.36;99778.59;5091026;28;20051;-42
2022/07/23 04:02:23;;;;;;;8.85;6.15;;;;;;;25.30;42.74;99790.03;5090596;28;20028;-42
2022/07/23 04:04:48;;;;;;;8.63;5.60;;;;;;;25.16;42.64;99771.75;5090747;28;20020;-42
2022/07/23 04:07:14;;;;;;;7.65;5.90;;;;;;;25.59;41.87;99780.78;5085844;28;20460;-41
2022/07/23 04:09:42;;;;;;;8.63;5.93;;;;;;;25.83;41.40;99777.84;5069154;28;20039;-46
2022/07/23 04:12:08;;;;;;;11.87;6.20;;;;;;;26.32;40.37;99776.28;5070639;28;20138;-47
2022/07/23 04:14:33;;;;;;;9.52;6.25;;;;;;;26.45;40.50;99782.81;5070124;28;20017;-44
2022/07/23 04:16:59;;;;;;;7.60;5.90;;;;;;;26.76;39.77;99785.63;5070582;28;20387;-41
2022/07/23 04:19:25;;;;;;;14.00;6.72;;;;;;;26.69;40.01;99785.25;5070513;28;20048;-41
2022/07/23 04:21:50;;;;;;;9.13;6.28;;;;;;;27.06;39.25;99786.78;5070117;28;20060;-42
2022/07/23 04:24:16;;;;;;;10.77;6.80;;;;;;;27.34;38.58;99791.28;5068081;28;20043;-42
2022/07/23 04:26:41;;;;;;;9.80;6.50;;;;;;;27.47;38.22;99802.13;5069687;28;20112;-43
2022/07/23 04:29:07;;;;;;;10.32;6.85;;;;;;;27.41;38.06;99792.44;5069658;28;20021;-41
2022/07/23 04:31:32;;;;;;;10.43;7.63;;;;;;;27.42;37.97;99788.59;5070158;28;20031;-43
2022/07/23 04:33:58;;;;;;;13.88;8.80;;;;;;;27.27;38.27;99789.81;5089494;28;20020;-42
2022/07/23 04:36:24;;;;;;;13.65;8.90;;;;;;;27.13;38.35;99791.81;5069338;28;20024;-43
2022/07/23 04:38:49;;;;;;;14.88;9.05;;;;;;;27.55;37.81;99791.53;5077530;28;20020;-41
2022/07/23 04:41:15;;;;;;;14.63;9.25;;;;;;;27.79;37.28;99789.19;5078813;28;20024;-41
2022/07/23 04:43:40;;;;;;;12.60;9.15;;;;;;;27.93;36.87;99788.28;5077902;28;20088;-41
2022/07/23 04:46:05;;;;;;;14.73;9.15;;;;;;;28.10;36.71;99782.06;5079705;28;20065;-43
2022/07/23 04:48:31;;;;;;;18.70;9.35;;;;;;;28.30;36.38;99792.38;5079463;28;20027;-47
2022/07/23 04:50:56;;;;;;;13.00;9.35;;;;;;;28.53;35.90;99787.59;5084334;28;20044;-43
2022/07/23 04:53:22;;;;;;;15.30;9.18;;;;;;;28.81;35.54;99803.69;5083319;28;20036;-42
2022/07/23 04:55:47;;;;;;;12.85;9.00;;;;;;;29.08;35.05;99799.75;5088724;28;20020;-43
2022/07/23 04:58:13;;;;;;;17.27;10.45;;;;;;;29.31;34.80;99802.28;5085210;28;20028;-42
2022/07/23 05:00:38;;;;;;;12.93;9.60;;;;;;;29.35;34.62;99797.75;5082878;28;20051;-41
2022/07/23 05:03:04;;;;;;;17.85;9.90;;;;;;;29.32;34.72;99798.41;5091791;28;20171;-43
2022/07/23 05:05:29;;;;;;;15.43;10.45;;;;;;;29.36;34.09;99788.41;5093097;28;20020;-42
2022/07/23 05:07:55;;;;;;;15.98;10.77;;;;;;;29.66;34.29;99802.94;5092614;28;20020;-42
2022/07/23 05:10:20;;;;;;;19.33;11.00;;;;;;;30.10;33.61;99797.22;5092836;28;20340;-43
2022/07/23 05:12:45;;;;;;;18.88;11.20;;;;;;;30.93;32.23;99795.63;5092675;28;20024;-43
2022/07/23 05:15:11;;;;;;;18.42;12.25;;;;;;;30.65;32.72;99807.16;5093237;28;20095;-42
2022/07/23 05:17:36;;;;;;;19.20;12.20;;;;;;;30.61;32.82;99795.25;5081519;28;20093;-43
2022/07/23 05:20:03;;;;;;;18.88;11.52;;;;;;;30.86;32.59;99792.59;5080865;28;20163;-42
2022/07/23 05:22:28;;;;;;;17.17;11.52;;;;;;;31.06;32.71;99794.50;5082112;28;20495;-41
2022/07/23 05:24:54;;;;;;;16.42;11.90;;;;;;;31.51;31.79;99790.94;5076984;28;20043;-41
2022/07/23 05:27:19;;;;;;;17.50;11.05;;;;;;;32.36;30.59;99793.16;5083181;28;20024;-43
2022/07/23 05:29:45;;;;;;;14.55;11.30;;;;;;;32.12;30.39;99797.56;5082680;28;20550;-44
2022/07/23 05:32:10;;;;;;;13.57;10.88;;;;;;;31.79;31.18;99793.00;5086714;28;20026;-43
2022/07/23 05:34:35;;;;;;;18.73;10.20;;;;;;;31.70;31.18;99793.13;5088743;28;20024;-43
2022/07/23 05:37:01;;;;;;;17.10;9.90;;;;;;;32.08;30.78;99793.91;5081511;28;20036;-43
2022/07/23 05:39:26;;;;;;;16.35;9.38;;;;;;;32.52;30.33;99783.00;5077207;28;20039;-43
2022/07/23 05:41:52;;;;;;;13.15;9.20;;;;;;;32.94;29.58;99790.88;5077037;28;20042;-42
2022/07/23 05:44:17;;;;;;;15.75;8.50;;;;;;;34.09;28.18;99788.94;5081210;28;20397;-42
2022/07/23 05:46:42;;;;;;;11.63;7.20;;;;;;;33.54;28.58;99778.97;5106529;27;20023;-36
2022/07/23 05:49:08;;;;;;;14.30;7.60;;;;;;;33.33;28.78;99785.56;5081052;28;20415;-36
2022/07/23 05:51:33;;;;;;;12.88;7.90;;;;;;;33.45;29.03;99798.47;5091412;28;20052;-37
2022/07/23 05:53:59;;;;;;;15.35;9.00;;;;;;;33.95;28.28;99798.84;5090687;28;20020;-37
2022/07/23 05:56:24;;;;;;;15.10;8.75;;;;;;;34.25;28.12;99799.16;5082029;28;20021;-37
2022/07/23 05:58:50;;;;;;;12.45;8.32;;;;;;;34.42;28.08;99806.22;5082677;28;20385;-37
2022/07/23 06:01:15;;;;;;;10.98;7.50;;;;;;;34.23;28.33;99794.03;5081249;28;20093;-43
2022/07/23 06:03:40;;;;;;;13.32;7.63;;;;;;;34.42;27.69;99790.47;5078743;28;20027;-37
2022/07/23 06:06:06;;;;;;;13.75;8.07;;;;;;;34.82;27.17;99791.25;5081881;28;20483;-37
2022/07/23 06:08:32;;;;;;;14.32;8.40;;;;;;;35.57;26.54;99791.78;5073338;28;20024;-35
2022/07/23 06:10:57;;;;;;;15.52;7.68;;;;;;;35.77;26.52;99787.75;5071535;28;20020;-36
2022/07/23 06:13:23;;;;;;;10.48;7.80;;;;;;;35.41;26.31;99781.66;5071669;28;20021;-36
2022/07/23 06:15:48;;;;;;;15.35;8.15;;;;;;;35.40;26.54;99791.09;5073451;28;20024;-37
2022/07/23 06:18:16;;;;;;;11.93;7.93;;;;;;;35.57;26.92;99794.53;5073107;28;20036;-37
2022/07/23 06:20:42;;;;;;;18.23;9.30;;;;;;;36.24;26.17;99795.94;5091787;28;20019;-37
2022/07/23 06:23:07;;;;;;;10.50;8.48;;;;;;;36.29;25.78;99790.03;5090441;28;20024;-37
2022/07/23 06:25:33;;;;;;;12.40;7.35;;;;;;;36.17;25.77;99791.88;5092016;28;20024;-37
2022/07/23 06:27:59;;;;;;;13.02;10.00;;;;;;;36.40;25.63;99793.75;5091677;28;20016;-37
2022/07/23 06:30:25;;;;;;;12.57;7.82;;;;;;;36.74;25.51;99802.09;5091743;28;20024;-37
2022/07/23 06:32:50;;;;;;;14.38;8.65;;;;;;;36.67;25.10;99796.47;5091365;28;20039;-37
2022/07/23 06:35:16;;;;;;;15.55;7.93;;;;;;;37.53;24.38;99797.28;5091297;28;20058;-37
2022/07/23 06:37:42;;;;;;;12.00;7.75;;;;;;;37.27;24.79;99787.16;5091487;28;20024;-38
2022/07/23 06:40:08;;;;;;;12.50;7.13;;;;;;;36.76;25.73;99786.66;5091566;28;20508;-37
2022/07/23 06:42:33;;;;;;;12.40;7.70;;;;;;;36.79;25.18;99783.13;5091274;28;20483;-37
2022/07/23 06:44:58;;;;;;;13.05;8.13;;;;;;;37.19;24.78;99785.53;5091651;28;20106;-36
2022/07/23 06:47:24;;;;;;;14.10;7.00;;;;;;;37.49;24.29;99777.84;5091493;28;20027;-36
2022/07/23 06:49:49;;;;;;;10.80;6.30;;;;;;;37.53;24.50;99784.22;5091632;28;20078;-37
2022/07/23 06:52:15;;;;;;;11.80;5.85;;;;;;;37.60;24.29;99777.91;5091114;28;20051;-37
2022/07/23 06:54:40;;;;;;;10.55;5.50;;;;;;;37.46;24.66;99775.81;5090921;28;20024;-37
2022/07/23 06:57:06;;;;;;;10.35;5.78;;;;;;;37.62;23.70;99775.56;5091479;28;20036;-36
2022/07/23 06:59:32;;;;;;;7.72;5.47;;;;;;;37.74;23.61;99771.69;5091310;28;20042;-37
2022/07/23 07:01:58;;;;;;;11.25;5.80;;;;;;;38.47;23.34;99774.41;5090710;28;20081;-38
2022/07/23 07:04:23;;;;;;;8.98;5.25;;;;;;;38.26;23.64;99763.25;5090739;28;20028;-38
2022/07/23 07:06:49;;;;;;;9.38;5.40;;;;;;;37.86;24.07;99768.56;5091206;28;20039;-37
2022/07/23 07:09:14;;;;;;;8.80;5.03;;;;;;;37.98;23.24;99767.44;5090976;28;20106;-37
2022/07/23 07:11:39;;;;;;;9.98;4.95;;;;;;;38.28;23.23;99771.97;5090828;28;20030;-37
2022/07/23 07:14:06;;;;;;;8.60;4.85;;;;;;;38.83;22.52;99773.75;5089548;28;20028;-37
2022/07/23 07:16:31;;;;;;;10.75;5.82;;;;;;;39.07;21.89;99761.06;5090769;28;20020;-37
2022/07/23 07:18:56;;;;;;;9.10;4.82;;;;;;;38.78;22.38;99763.00;5090831;28;20023;-35
2022/07/23 07:21:22;;;;;;;7.78;4.80;;;;;;;38.28;22.35;99760.88;5090694;28;20024;-37
2022/07/23 07:23:47;;;;;;;8.82;4.45;;;;;;;38.64;22.09;99755.44;5090837;28;20161;-36
2022/07/23 07:26:13;;;;;;;11.68;4.55;;;;;;;38.94;21.97;99755.09;5090916;28;20054;-37
2022/07/23 07:28:38;;;;;;;10.85;4.60;;;;;;;39.42;21.14;99756.69;5076381;28;20028;-38
2022/07/23 07:31:04;;;;;;;7.43;4.75;;;;;;;38.87;22.14;99753.09;5070592;28;20021;-37
2022/07/23 07:33:29;;;;;;;9.23;4.80;;;;;;;39.00;21.41;99753.53;5070314;28;20040;-38
2022/07/23 07:35:55;;;;;;;10.60;4.45;;;;;;;39.04;21.42;99753.53;5070213;28;20036;-37
2022/07/23 07:38:20;;;;;;;11.38;5.28;;;;;;;39.38;21.20;99745.56;5070074;28;20205;-38
2022/07/23 07:40:46;;;;;;;11.23;4.80;;;;;;;39.54;21.87;99750.72;5070177;28;20028;-37
2022/07/23 07:43:11;;;;;;;7.68;4.30;;;;;;;40.51;20.55;99744.84;5070277;28;20033;-37
2022/07/23 07:45:37;;;;;;;10.27;4.70;;;;;;;40.01;21.04;99740.28;5070388;28;20522;-36
2022/07/23 07:48:02;;;;;;;9.93;4.32;;;;;;;40.07;20.45;99743.44;5070181;28;20405;-37
2022/07/23 07:50:28;;;;;;;8.93;4.72;;;;;;;40.06;20.53;99734.31;5069988;28;20068;-37
2022/07/23 07:52:53;;;;;;;7.25;4.38;;;;;;;40.07;20.05;99730.31;5070173;28;20016;-37
2022/07/23 07:55:19;;;;;;;9.18;4.20;;;;;;;40.29;20.27;99735.78;5069315;28;20025;-38
2022/07/23 07:57:44;;;;;;;11.52;4.20;;;;;;;40.67;19.83;99733.19;5069479;28;20500;-36
2022/07/23 08:00:11;;;;;;;9.18;5.45;;;;;;;40.39;19.93;99729.38;5070021;28;20055;-38
2022/07/23 08:03:00;;;;;;;9.38;4.60;;;;;;;40.35;20.46;99728.63;5070216;28;20035;-37
2022/07/23 08:05:28;;;;;;;7.32;4.50;;;;;;;40.36;20.43;99732.19;5070427;28;20033;-39
2022/07/23 08:07:55;;;;;;;7.53;4.20;;;;;;;40.80;19.33;99727.94;5069862;28;20020;-37
2022/07/23 08:10:21;;;;;;;8.57;4.22;;;;;;;40.56;19.92;99730.47;5070164;28;20081;-37
2022/07/23 08:12:49;;;;;;;9.15;4.75;;;;;;;40.57;19.86;99728.47;5069948;28;20028;-37
2022/07/23 08:15:17;;;;;;;8.82;4.00;;;;;;;40.67;19.62;99724.03;5070453;28;20061;-37
2022/07/23 08:17:44;;;;;;;6.72;4.60;;;;;;;40.74;19.53;99724.75;5069737;28;20058;-37
2022/07/23 08:20:12;;;;;;;8.03;4.30;;;;;;;40.77;19.07;99721.19;5072123;28;20103;-37
2022/07/23 08:22:58;;;;;;;9.13;4.03;;;;;;;41.40;18.89;99709.91;5074139;28;20357;-37
2022/07/23 08:25:36;;;;;;;7.32;4.07;;;;;;;41.36;18.71;99708.34;5074185;28;20134;-37
2022/07/23 08:28:03;;;;;;;9.90;4.10;;;;;;;41.19;18.68;99702.53;5083244;28;20082;-37
2022/07/23 08:30:30;;;;;;;8.73;4.25;;;;;;;41.03;18.58;99694.69;5093972;28;20099;-37
2022/07/23 08:33:07;;;;;;;7.50;4.80;;;;;;;41.27;17.66;99699.69;5094015;28;20374;-37
2022/07/23 08:35:40;;;;;;;7.03;4.05;;;;;;;41.45;18.22;99691.91;5094027;28;20024;-37
2022/07/23 08:38:08;;;;;;;7.68;4.22;;;;;;;41.67;17.89;99688.91;5093995;28;20112;-36
2022/07/23 08:40:36;;;;;;;10.65;4.47;;;;;;;41.37;18.24;99687.59;5093646;28;20439;-37
2022/07/23 08:43:10;;;;;;;18.02;13.05;;;;;;;41.10;18.45;99684.66;5093408;28;20115;-37
2022/07/23 08:45:39;;;;;;;7.60;4.90;;;;;;;41.32;18.37;99683.28;5094063;28;20032;-36
2022/07/23 08:48:07;;;;;;;27.48;24.75;;;;;;;41.50;18.22;99682.28;5093691;28;20044;-36
2022/07/23 08:50:36;;;;;;;9.88;6.90;;;;;;;41.78;18.19;99687.56;5093250;28;20059;-38
2022/07/23 08:53:05;;;;;;;6.95;4.80;;;;;;;42.25;17.87;99686.16;5093636;28;20032;-37
2022/07/23 08:55:30;;;;;;;8.77;3.90;;;;;;;40.72;18.97;99676.97;5093382;28;20020;-37
2022/07/23 08:57:55;;;;;;;8.77;4.50;;;;;;;41.38;18.85;99673.22;5093084;28;20352;-37
2022/07/23 09:00:22;;;;;;;7.20;4.30;;;;;;;41.59;18.16;99671.41;5093445;28;20380;-38
2022/07/23 09:02:49;;;;;;;10.57;4.47;;;;;;;41.94;18.18;99672.97;5092658;28;20427;-37
2022/07/23 09:05:15;;;;;;;7.63;3.90;;;;;;;41.92;18.10;99669.81;5093484;28;20073;-37
2022/07/23 09:08:03;;;;;;;7.15;4.30;;;;;;;42.83;16.68;99660.94;5093281;28;20024;-37
2022/07/23 09:10:29;;;;;;;9.47;4.53;;;;;;;41.55;17.92;99665.88;5093249;28;20032;-36
2022/07/23 09:12:54;;;;;;;8.98;4.40;;;;;;;41.60;18.07;99657.03;5092739;28;20244;-37
2022/07/23 09:15:20;;;;;;;8.93;5.25;;;;;;;41.76;18.06;99659.25;5093327;28;20016;-38
2022/07/23 09:17:45;;;;;;;6.88;4.53;;;;;;;42.06;17.93;99677.25;5093193;28;20035;-37
2022/07/23 09:20:16;;;;;;;6.03;4.15;;;;;;;42.50;16.65;99672.66;5074008;28;20165;-37
2022/07/23 09:22:48;;;;;;;7.68;4.10;;;;;;;43.32;15.45;99661.31;5071947;28;20036;-38
2022/07/23 09:25:19;;;;;;;8.48;4.10;;;;;;;42.73;16.16;99663.47;5072882;28;20128;-36
2022/07/23 09:27:48;;;;;;;8.95;4.30;;;;;;;42.30;16.76;99664.13;5072743;28;20017;-37
2022/07/23 09:30:14;;;;;;;8.15;4.50;;;;;;;42.20;17.28;99656.69;5071722;28;20016;-36
2022/07/23 09:32:40;;;;;;;7.28;3.95;;;;;;;42.42;17.13;99664.75;5071404;28;20568;-37
2022/07/23 09:35:06;;;;;;;8.15;3.92;;;;;;;42.72;16.48;99661.88;5072230;28;20078;-37
2022/07/23 09:37:31;;;;;;;8.95;4.03;;;;;;;43.48;15.93;99644.56;5072087;28;20029;-37
2022/07/23 09:40:07;;;;;;;6.10;3.90;;;;;;;42.76;16.13;99645.84;5072487;28;20024;-38
2022/07/23 09:42:33;;;;;;;6.10;4.20;;;;;;;42.67;16.45;99653.19;5072213;28;20035;-38
2022/07/23 09:44:59;;;;;;;10.15;4.07;;;;;;;42.63;16.80;99639.25;5072286;28;20028;-38
2022/07/23 09:47:29;;;;;;;18.38;13.68;;;;;;;42.76;16.39;99640.25;5072394;28;20021;-37
2022/07/23 09:50:09;;;;;;;13.45;7.72;;;;;;;42.87;15.47;99640.06;5072503;28;20539;-38
2022/07/23 09:52:49;;;;;;;9.07;4.10;;;;;;;43.24;15.46;99640.22;5052093;28;20051;-37
2022/07/23 09:55:16;;;;;;;8.80;7.57;;;;;;;42.44;15.54;99631.56;5051504;28;20476;-37
2022/07/23 09:57:45;;;;;;;10.77;9.23;;;;;;;42.06;15.57;99634.53;5052134;28;20037;-37
2022/07/23 10:00:13;;;;;;;9.18;4.43;;;;;;;41.99;15.94;99629.81;5051867;28;20033;-36
2022/07/23 10:02:39;;;;;;;9.98;4.25;;;;;;;42.13;15.98;99612.09;5051834;28;20465;-36
2022/07/23 10:05:06;;;;;;;11.95;7.78;;;;;;;42.39;16.15;99619.66;5051322;28;20032;-36
2022/07/23 10:07:36;;;;;;;8.25;4.10;;;;;;;42.74;15.64;99625.88;5051672;28;20036;-37
2022/07/23 10:10:04;;;;;;;6.70;3.70;;;;;;;42.75;15.22;99626.69;5052173;28;20037;-37
2022/07/23 10:15:06;;;;;;;7.55;3.50;;;;;;;42.76;14.90;99617.06;5052427;28;20116;-35
2022/07/23 10:17:31;;;;;;;;;;;;;;;42.87;14.65;99616.91;5052497;28;20043;-38
2022/07/23 10:19:57;;;;;;;9.02;3.88;;;;;;;43.08;14.52;99613.72;5051967;28;19908;-37
2022/07/23 10:22:26;;;;;;;6.43;3.60;;;;;;;43.04;14.29;99613.00;5051934;28;20029;-37
2022/07/23 10:25:16;;;;;;;8.02;3.90;;;;;;;43.57;14.02;99598.41;5051546;28;20039;-37
2022/07/23 10:27:56;;;;;;;6.70;3.47;;;;;;;43.43;14.62;99605.06;5057438;28;20082;-38
2022/07/23 10:30:58;;;;;;;10.18;3.75;;;;;;;42.95;13.65;99604.38;5071334;28;20028;-38
2022/07/23 10:33:45;;;;;;;5.93;3.65;;;;;;;43.24;14.13;99601.84;5071174;28;20028;-37
2022/07/23 10:36:23;;;;;;;8.88;4.20;;;;;;;42.90;14.01;99594.47;5071491;28;20089;-37
2022/07/23 10:39:05;;;;;;;7.28;3.60;;;;;;;42.27;13.94;99603.50;5071035;28;20396;-37
2022/07/23 10:41:40;;;;;;;7.40;3.80;;;;;;;42.09;13.60;99597.38;5071042;28;20419;-36
2022/07/23 10:44:14;;;;;;;9.00;3.83;;;;;;;42.87;13.33;99584.09;5071210;28;20081;-37
2022/07/23 10:49:44;;;;;;;7.45;3.55;;;;;;;42.54;13.88;99578.31;5064547;28;20044;-37
2022/07/23 10:52:21;;;;;;;7.72;4.00;;;;;;;42.47;13.88;99572.84;5088950;28;20483;-37
2022/07/23 10:55:16;;;;;;;8.55;3.60;;;;;;;42.42;13.85;99566.91;5091433;28;20188;-38
2022/07/23 10:57:49;;;;;;;10.88;3.92;;;;;;;41.94;14.37;99560.44;5090956;28;20391;-37
2022/07/23 11:00:23;;;;;;;6.35;4.20;;;;;;;42.68;13.37;99563.28;5090851;28;20026;-38
2022/07/23 11:02:54;;;;;;;7.50;4.00;;;;;;;42.85;13.36;99563.38;5090615;28;20024;-37
2022/07/23 11:05:22;;;;;;;8.73;3.90;;;;;;;42.18;13.96;99559.31;5091292;28;20042;-38
2022/07/23 11:08:07;;;;;;;17.30;13.95;;;;;;;42.58;13.95;99556.66;5090882;28;20126;-38
2022/07/23 11:10:38;;;;;;;7.00;4.03;;;;;;;42.52;14.80;99555.56;5090441;28;20519;-38
2022/07/23 11:13:22;;;;;;;11.02;4.40;;;;;;;43.08;14.14;99548.56;5090561;28;20500;-37
2022/07/23 11:16:02;;;;;;;8.20;3.90;;;;;;;43.39;12.96;99549.16;5090895;28;20020;-38
2022/07/23 11:18:40;;;;;;;7.60;3.80;;;;;;;43.32;12.50;99541.69;5090431;28;20012;-37
2022/07/23 11:21:26;;;;;;;8.90;3.80;;;;;;;42.70;13.15;99537.69;5090242;28;20027;-38
2022/07/23 11:24:03;;;;;;;9.40;4.07;;;;;;;42.32;13.76;99543.50;5090188;28;20107;-39
2022/07/23 11:26:38;;;;;;;8.75;3.90;;;;;;;42.35;12.74;99537.09;5090584;28;20046;-37
2022/07/23 11:29:28;;;;;;;7.18;3.97;;;;;;;42.69;12.85;99536.91;5090667;28;20046;-37
2022/07/23 11:31:58;;;;;;;8.82;3.75;;;;;;;43.13;12.80;99534.09;5088832;28;20435;-36
2022/07/23 11:34:31;;;;;;;10.68;4.10;;;;;;;42.53;13.13;99523.59;5085113;28;20024;-37